createdAt,value
2018-05-04T00:00:13.542Z,8.83
2018-05-04T00:01:11.762Z,8.84
2018-05-04T00:02:11.980Z,8.93
2018-05-04T00:03:12.189Z,8.93
2018-05-04T00:04:12.409Z,8.93
2018-05-04T00:05:12.630Z,8.81
2018-05-04T00:06:12.846Z,8.79
2018-05-04T00:07:13.061Z,8.86
2018-05-04T00:08:13.268Z,8.79
2018-05-04T00:09:13.467Z,8.71
2018-05-04T00:10:13.686Z,8.76
2018-05-04T00:11:15.537Z,8.75
2018-05-04T00:12:14.119Z,8.75
2018-05-04T00:13:16.043Z,8.75
2018-05-04T00:14:16.063Z,8.75
2018-05-04T00:15:17.546Z,8.75
2018-05-04T00:16:14.754Z,8.71
2018-05-04T00:17:14.964Z,8.76
2018-05-04T00:18:15.179Z,8.68
2018-05-04T00:19:15.406Z,8.73
2018-05-04T00:20:15.623Z,8.69
2018-05-04T00:21:15.838Z,8.76
2018-05-04T00:22:16.051Z,8.88
2018-05-04T00:23:16.275Z,8.84
2018-05-04T00:24:16.498Z,8.90
2018-05-04T00:25:16.693Z,8.93
2018-05-04T00:26:16.908Z,8.97
2018-05-04T00:27:17.120Z,9.05
2018-05-04T00:28:17.332Z,9.15
2018-05-04T00:29:17.560Z,9.09
2018-05-04T00:30:17.767Z,9.10
2018-05-04T00:31:17.972Z,9.23
2018-05-04T00:32:18.183Z,9.39
2018-05-04T00:33:18.422Z,9.43
2018-05-04T00:34:18.605Z,9.46
2018-05-04T00:35:20.536Z,9.42
2018-05-04T00:36:19.006Z,9.45
2018-05-04T00:37:19.211Z,9.48
2018-05-04T00:38:19.419Z,9.42
2018-05-04T00:39:19.674Z,9.46
2018-05-04T00:40:21.540Z,9.49
2018-05-04T00:41:20.000Z,9.48
2018-05-04T00:42:20.197Z,9.45
2018-05-04T00:43:20.395Z,9.40
2018-05-04T00:44:20.603Z,9.31
2018-05-04T00:45:20.818Z,9.32
2018-05-04T00:46:21.039Z,9.27
2018-05-04T00:47:21.139Z,9.18
2018-05-04T00:48:21.351Z,9.12
2018-05-04T00:49:21.560Z,9.20
2018-05-04T00:50:21.780Z,9.21
2018-05-04T00:51:21.992Z,9.23
2018-05-04T00:52:22.202Z,9.35
2018-05-04T00:53:25.035Z,9.32
2018-05-04T00:54:22.619Z,9.34
2018-05-04T00:55:22.827Z,9.34
2018-05-04T00:56:23.041Z,9.32
2018-05-04T00:57:27.037Z,9.38
2018-05-04T00:58:23.369Z,9.32
2018-05-04T00:59:23.593Z,9.42
2018-05-04T01:00:23.796Z,9.49
2018-05-04T01:01:23.994Z,9.60
2018-05-04T01:02:26.042Z,9.57
2018-05-04T01:03:24.372Z,9.66
2018-05-04T01:04:26.543Z,9.61
2018-05-04T01:05:24.748Z,9.50
2018-05-04T01:06:24.982Z,9.32
2018-05-04T01:07:25.092Z,9.25
2018-05-04T01:08:26.305Z,9.24
2018-05-04T01:09:25.522Z,9.06
2018-05-04T01:10:25.742Z,8.96
2018-05-04T01:11:25.957Z,8.93
2018-05-04T01:12:28.033Z,8.68
2018-05-04T01:13:26.373Z,8.48
2018-05-04T01:14:26.593Z,8.54
2018-05-04T01:15:26.810Z,8.42
2018-05-04T01:16:27.020Z,8.42
2018-05-04T01:17:27.223Z,8.32
2018-05-04T01:18:31.035Z,8.26
2018-05-04T01:19:29.538Z,8.28
2018-05-04T01:20:27.733Z,8.10
2018-05-04T01:21:27.951Z,8.11
2018-05-04T01:22:28.157Z,7.97
2018-05-04T01:23:31.035Z,7.92
2018-05-04T01:24:30.042Z,7.87
2018-05-04T01:25:28.612Z,7.85
2018-05-04T01:26:28.830Z,7.90
2018-05-04T01:27:29.047Z,7.93
2018-05-04T01:28:29.255Z,7.85
2018-05-04T01:29:29.471Z,7.84
2018-05-04T01:30:30.727Z,7.94
2018-05-04T01:31:29.808Z,7.89
2018-05-04T01:32:30.019Z,7.96
2018-05-04T01:33:30.224Z,7.90
2018-05-04T01:34:32.032Z,7.89
2018-05-04T01:35:30.611Z,7.99
2018-05-04T01:36:30.817Z,8.04
2018-05-04T01:37:31.027Z,8.07
2018-05-04T01:38:31.234Z,8.00
2018-05-04T01:39:35.379Z,7.97
2018-05-04T01:40:31.611Z,8.00
2018-05-04T01:41:31.807Z,7.92
2018-05-04T01:42:32.020Z,7.93
2018-05-04T01:43:32.231Z,7.89
2018-05-04T01:44:32.453Z,7.90
2018-05-04T01:45:35.534Z,7.94
2018-05-04T01:46:32.876Z,8.02
2018-05-04T01:47:33.088Z,7.87
2018-05-04T01:48:33.295Z,7.85
2018-05-04T01:49:33.506Z,7.81
2018-05-04T01:50:33.750Z,7.81
2018-05-04T01:51:33.954Z,7.74
2018-05-04T01:52:34.153Z,7.66
2018-05-04T01:53:36.045Z,7.69
2018-05-04T01:54:37.046Z,7.71
2018-05-04T01:55:34.645Z,7.72
2018-05-04T01:56:34.753Z,7.79
2018-05-04T01:57:34.949Z,7.79
2018-05-04T01:58:37.045Z,7.84
2018-05-04T01:59:37.041Z,7.79
2018-05-04T02:00:37.035Z,7.77
2018-05-04T02:01:35.625Z,7.72
2018-05-04T02:02:35.837Z,7.77
2018-05-04T02:03:36.063Z,7.69
2018-05-04T02:04:36.172Z,7.66
2018-05-04T02:05:38.037Z,7.62
2018-05-04T02:06:36.485Z,7.59
2018-05-04T02:07:36.702Z,7.66
2018-05-04T02:08:36.902Z,7.60
2018-05-04T02:09:37.117Z,7.56
2018-05-04T02:10:37.333Z,7.62
2018-05-04T02:11:37.535Z,7.62
2018-05-04T02:12:39.535Z,7.60
2018-05-04T02:13:39.548Z,7.59
2018-05-04T02:14:39.572Z,7.55
2018-05-04T02:15:38.240Z,7.50
2018-05-04T02:16:41.062Z,7.45
2018-05-04T02:17:38.672Z,7.45
2018-05-04T02:18:38.891Z,7.41
2018-05-04T02:19:39.000Z,7.55
2018-05-04T02:20:39.199Z,7.50
2018-05-04T02:21:41.037Z,7.41
2018-05-04T02:22:42.536Z,7.35
2018-05-04T02:23:39.744Z,7.35
2018-05-04T02:24:39.947Z,7.35
2018-05-04T02:25:45.165Z,7.29
2018-05-04T02:26:44.034Z,7.34
2018-05-04T02:27:42.048Z,7.32
2018-05-04T02:28:44.582Z,7.23
2018-05-04T02:29:40.742Z,7.24
2018-05-04T02:30:40.967Z,7.24
2018-05-04T02:31:43.050Z,7.22
2018-05-04T02:32:41.377Z,7.16
2018-05-04T02:33:43.544Z,7.20
2018-05-04T02:34:41.744Z,7.16
2018-05-04T02:35:41.951Z,7.19
2018-05-04T02:36:42.157Z,7.07
2018-05-04T02:37:42.374Z,7.13
2018-05-04T02:38:42.582Z,7.02
2018-05-04T02:39:42.796Z,7.07
2018-05-04T02:40:43.003Z,7.02
2018-05-04T02:41:45.090Z,7.04
2018-05-04T02:42:43.397Z,7.12
2018-05-04T02:43:43.609Z,7.04
2018-05-04T02:44:46.557Z,7.02
2018-05-04T02:45:45.543Z,6.98
2018-05-04T02:46:46.061Z,7.02
2018-05-04T02:47:44.416Z,7.02
2018-05-04T02:48:44.633Z,7.04
2018-05-04T02:49:44.831Z,6.97
2018-05-04T02:50:45.049Z,6.98
2018-05-04T02:51:46.284Z,7.02
2018-05-04T02:52:45.484Z,7.07
2018-05-04T02:53:47.554Z,6.95
2018-05-04T02:54:45.880Z,7.02
2018-05-04T02:55:50.065Z,7.01
2018-05-04T02:56:46.294Z,7.05
2018-05-04T02:57:48.041Z,7.08
2018-05-04T02:58:46.641Z,7.02
2018-05-04T02:59:48.554Z,7.04
2018-05-04T03:00:48.573Z,6.95
2018-05-04T03:01:49.040Z,7.02
2018-05-04T03:02:49.043Z,7.05
2018-05-04T03:03:49.035Z,6.98
2018-05-04T03:04:49.541Z,6.95
2018-05-04T03:05:47.758Z,6.97
2018-05-04T03:06:48.856Z,6.91
2018-05-04T03:07:50.061Z,6.91
2018-05-04T03:08:48.371Z,6.97
2018-05-04T03:09:50.550Z,6.89
2018-05-04T03:10:48.775Z,6.87
2018-05-04T03:11:48.869Z,6.90
2018-05-04T03:12:49.087Z,6.99
2018-05-04T03:13:49.301Z,6.98
2018-05-04T03:14:49.503Z,6.95
2018-05-04T03:15:49.716Z,6.94
2018-05-04T03:16:49.933Z,6.97
2018-05-04T03:17:50.161Z,6.97
2018-05-04T03:18:50.372Z,6.99
2018-05-04T03:19:50.583Z,6.95
2018-05-04T03:20:50.800Z,6.90
2018-05-04T03:21:52.609Z,6.89
2018-05-04T03:22:53.052Z,6.89
2018-05-04T03:23:53.047Z,6.97
2018-05-04T03:24:51.504Z,6.89
2018-05-04T03:25:54.554Z,6.91
2018-05-04T03:26:51.897Z,6.89
2018-05-04T03:27:54.035Z,6.94
2018-05-04T03:28:52.239Z,6.90
2018-05-04T03:29:54.047Z,6.98
2018-05-04T03:30:54.532Z,6.86
2018-05-04T03:31:54.533Z,6.80
2018-05-04T03:32:54.583Z,6.81
2018-05-04T03:33:53.056Z,6.89
2018-05-04T03:34:54.268Z,6.81
2018-05-04T03:35:53.518Z,6.89
2018-05-04T03:36:55.586Z,6.90
2018-05-04T03:37:56.544Z,6.87
2018-05-04T03:38:53.874Z,6.84
2018-05-04T03:39:56.030Z,6.87
2018-05-04T03:40:54.233Z,6.79
2018-05-04T03:41:56.033Z,6.79
2018-05-04T03:42:54.623Z,6.76
2018-05-04T03:43:56.537Z,6.63
2018-05-04T03:44:58.536Z,6.77
2018-05-04T03:45:55.285Z,6.72
2018-05-04T03:46:55.371Z,6.63
2018-05-04T03:47:57.554Z,6.68
2018-05-04T03:48:57.576Z,6.66
2018-05-04T03:49:56.898Z,6.66
2018-05-04T03:50:56.117Z,6.69
2018-05-04T03:51:58.048Z,6.76
2018-05-04T03:52:58.042Z,6.65
2018-05-04T03:53:56.623Z,6.83
2018-05-04T03:54:56.831Z,6.71
2018-05-04T03:55:57.029Z,6.72
2018-05-04T03:56:57.243Z,6.69
2018-05-04T03:57:57.446Z,6.80
2018-05-04T03:58:57.681Z,6.87
2018-05-04T04:00:00.542Z,6.76
2018-05-04T04:00:58.117Z,6.80
2018-05-04T04:01:58.340Z,6.77
2018-05-04T04:02:58.562Z,6.73
2018-05-04T04:04:01.545Z,6.68
2018-05-04T04:04:59.007Z,6.77
2018-05-04T04:06:01.039Z,6.76
2018-05-04T04:06:59.388Z,6.84
2018-05-04T04:07:59.488Z,6.77
2018-05-04T04:08:59.690Z,6.83
2018-05-04T04:10:15.534Z,6.83
2018-05-04T04:11:02.052Z,6.86
2018-05-04T04:12:00.289Z,6.83
2018-05-04T04:13:00.384Z,6.83
2018-05-04T04:14:00.586Z,6.91
2018-05-04T04:15:00.803Z,6.98
2018-05-04T04:16:01.019Z,6.91
2018-05-04T04:17:03.056Z,6.91
2018-05-04T04:18:04.143Z,6.90
2018-05-04T04:19:04.035Z,6.89
2018-05-04T04:20:03.544Z,7.02
2018-05-04T04:21:01.763Z,7.05
2018-05-04T04:22:03.535Z,7.20
2018-05-04T04:23:04.046Z,7.20
2018-05-04T04:24:04.042Z,7.27
2018-05-04T04:25:02.389Z,7.24
2018-05-04T04:26:02.582Z,7.35
2018-05-04T04:27:02.801Z,7.34
2018-05-04T04:28:03.001Z,7.52
2018-05-04T04:29:05.038Z,7.45
2018-05-04T04:30:05.042Z,7.58
2018-05-04T04:31:03.503Z,7.75
2018-05-04T04:32:05.540Z,7.89
2018-05-04T04:33:03.884Z,7.90
2018-05-04T04:34:04.081Z,7.87
2018-05-04T04:35:04.324Z,7.87
2018-05-04T04:36:04.503Z,7.89
2018-05-04T04:37:04.722Z,7.82
2018-05-04T04:38:04.942Z,7.84
2018-05-04T04:39:05.141Z,7.72
2018-05-04T04:40:05.368Z,7.74
2018-05-04T04:41:05.589Z,7.82
2018-05-04T04:42:05.791Z,7.90
2018-05-04T04:43:07.543Z,7.92
2018-05-04T04:44:06.124Z,8.00
2018-05-04T04:45:06.333Z,7.90
2018-05-04T04:46:06.548Z,7.89
2018-05-04T04:47:06.754Z,8.00
2018-05-04T04:48:08.534Z,7.97
2018-05-04T04:49:07.130Z,8.00
2018-05-04T04:50:07.340Z,8.08
2018-05-04T04:51:07.550Z,8.02
2018-05-04T04:52:10.534Z,8.12
2018-05-04T04:53:09.533Z,8.17
2018-05-04T04:54:08.131Z,8.25
2018-05-04T04:55:08.351Z,8.20
2018-05-04T04:56:10.549Z,8.18
2018-05-04T04:57:08.762Z,8.32
2018-05-04T04:58:08.876Z,8.25
2018-05-04T04:59:09.094Z,8.22
2018-05-04T05:00:09.332Z,8.35
2018-05-04T05:01:09.521Z,8.42
2018-05-04T05:02:09.734Z,8.40
2018-05-04T05:03:11.573Z,8.50
2018-05-04T05:04:10.150Z,8.48
2018-05-04T05:05:10.384Z,8.65
2018-05-04T05:06:10.584Z,8.78
2018-05-04T05:07:10.796Z,8.76
2018-05-04T05:08:11.015Z,8.68
2018-05-04T05:09:11.227Z,8.69
2018-05-04T05:10:11.461Z,8.69
2018-05-04T05:11:11.592Z,8.76
2018-05-04T05:12:11.786Z,8.78
2018-05-04T05:13:11.999Z,8.86
2018-05-04T05:14:12.206Z,8.91
2018-05-04T05:15:12.418Z,8.94
2018-05-04T05:16:12.632Z,8.96
2018-05-04T05:17:12.841Z,8.93
2018-05-04T05:18:13.053Z,9.06
2018-05-04T05:19:13.271Z,8.96
2018-05-04T05:20:13.481Z,8.94
2018-05-04T05:21:13.697Z,8.99
2018-05-04T05:22:13.794Z,9.20
2018-05-04T05:23:14.010Z,9.42
2018-05-04T05:24:14.223Z,9.50
2018-05-04T05:25:14.435Z,9.67
2018-05-04T05:26:14.657Z,10.00
2018-05-04T05:27:14.869Z,10.10
2018-05-04T05:28:15.067Z,10.15
2018-05-04T05:29:15.326Z,10.44
2018-05-04T05:30:15.495Z,10.73
2018-05-04T05:31:15.706Z,11.20
2018-05-04T05:32:15.925Z,11.10
2018-05-04T05:33:16.186Z,11.35
2018-05-04T05:34:18.042Z,11.94
2018-05-04T05:35:16.500Z,12.15
2018-05-04T05:36:16.702Z,12.24
2018-05-04T05:37:16.903Z,12.57
2018-05-04T05:38:17.122Z,12.79
2018-05-04T05:39:17.332Z,12.88
2018-05-04T05:40:17.545Z,13.06
2018-05-04T05:41:17.763Z,13.14
2018-05-04T05:42:18.052Z,13.22
2018-05-04T05:43:18.192Z,13.14
2018-05-04T05:44:18.407Z,13.41
2018-05-04T05:45:18.614Z,13.22
2018-05-04T05:46:21.536Z,13.29
2018-05-04T05:47:18.996Z,13.15
2018-05-04T05:48:19.217Z,13.09
2018-05-04T05:49:19.423Z,13.37
2018-05-04T05:50:21.534Z,13.69
2018-05-04T05:51:19.746Z,13.27
2018-05-04T05:52:19.949Z,13.00
2018-05-04T05:53:20.176Z,13.04
2018-05-04T05:54:20.382Z,13.25
2018-05-04T05:55:20.603Z,13.71
2018-05-04T05:56:22.542Z,13.67
2018-05-04T05:57:21.023Z,13.37
2018-05-04T05:58:21.230Z,13.87
2018-05-04T05:59:23.042Z,13.36
2018-05-04T06:00:21.638Z,13.29
2018-05-04T06:01:21.849Z,13.46
2018-05-04T06:02:26.050Z,13.73
2018-05-04T06:03:22.292Z,14.01
2018-05-04T06:04:22.483Z,13.91
2018-05-04T06:05:22.702Z,13.81
2018-05-04T06:06:22.912Z,13.47
2018-05-04T06:07:23.122Z,13.67
2018-05-04T06:08:25.039Z,13.91
2018-05-04T06:09:23.553Z,14.39
2018-05-04T06:10:23.707Z,14.34
2018-05-04T06:11:23.923Z,14.32
2018-05-04T06:12:26.038Z,14.17
2018-05-04T06:13:26.040Z,14.06
2018-05-04T06:14:24.551Z,14.04
2018-05-04T06:15:24.720Z,14.02
2018-05-04T06:16:24.929Z,14.31
2018-05-04T06:17:25.138Z,14.65
2018-05-04T06:18:25.357Z,14.75
2018-05-04T06:19:25.575Z,14.87
2018-05-04T06:20:25.775Z,14.75
2018-05-04T06:21:27.536Z,14.95
2018-05-04T06:22:26.134Z,14.71
2018-05-04T06:23:26.346Z,15.05
2018-05-04T06:24:34.549Z,15.92
2018-05-04T06:25:26.749Z,16.16
2018-05-04T06:26:26.959Z,16.18
2018-05-04T06:27:29.036Z,16.40
2018-05-04T06:28:27.369Z,15.84
2018-05-04T06:29:29.559Z,16.62
2018-05-04T06:30:27.754Z,15.89
2018-05-04T06:31:27.965Z,16.42
2018-05-04T06:32:28.195Z,16.15
2018-05-04T06:33:28.414Z,15.84
2018-05-04T06:34:28.622Z,16.25
2018-05-04T06:35:28.842Z,16.26
2018-05-04T06:36:29.072Z,15.79
2018-05-04T06:37:29.316Z,15.70
2018-05-04T06:38:29.489Z,15.78
2018-05-04T06:39:29.706Z,15.70
2018-05-04T06:40:29.921Z,15.97
2018-05-04T06:41:30.135Z,16.14
2018-05-04T06:42:30.346Z,16.62
2018-05-04T06:43:30.571Z,16.33
2018-05-04T06:44:30.795Z,16.15
2018-05-04T06:45:31.020Z,17.14
2018-05-04T06:46:31.262Z,16.89
2018-05-04T06:47:31.471Z,16.83
2018-05-04T06:48:31.715Z,17.55
2018-05-04T06:49:33.539Z,17.69
2018-05-04T06:50:32.127Z,17.28
2018-05-04T06:51:32.352Z,17.17
2018-05-04T06:52:32.577Z,16.59
2018-05-04T06:53:32.796Z,16.75
2018-05-04T06:54:33.044Z,17.63
2018-05-04T06:55:33.251Z,17.78
2018-05-04T06:56:33.460Z,17.00
2018-05-04T06:57:36.543Z,17.89
2018-05-04T06:58:33.887Z,18.29
2018-05-04T06:59:36.049Z,18.55
2018-05-04T07:00:36.045Z,18.06
2018-05-04T07:01:36.067Z,18.36
2018-05-04T07:02:34.629Z,18.40
2018-05-04T07:03:34.856Z,17.99
2018-05-04T07:04:35.095Z,17.47
2018-05-04T07:05:37.041Z,17.53
2018-05-04T07:06:37.060Z,17.51
2018-05-04T07:07:37.554Z,18.29
2018-05-04T07:08:37.563Z,18.49
2018-05-04T07:09:36.830Z,18.03
2018-05-04T07:10:36.197Z,18.19
2018-05-04T07:11:36.308Z,17.73
2018-05-04T07:12:36.529Z,18.03
2018-05-04T07:13:36.775Z,18.33
2018-05-04T07:14:36.891Z,18.33
2018-05-04T07:15:36.990Z,18.46
2018-05-04T07:16:39.051Z,18.46
2018-05-04T07:17:37.392Z,18.52
2018-05-04T07:18:40.558Z,18.22
2018-05-04T07:19:37.814Z,17.87
2018-05-04T07:20:38.002Z,18.00
2018-05-04T07:21:40.046Z,17.53
2018-05-04T07:22:39.428Z,17.47
2018-05-04T07:23:38.638Z,17.51
2018-05-04T07:24:40.557Z,17.66
2018-05-04T07:25:39.027Z,17.95
2018-05-04T07:26:39.256Z,17.76
2018-05-04T07:27:39.489Z,17.78
2018-05-04T07:28:39.732Z,18.29
2018-05-04T07:29:41.546Z,18.19
2018-05-04T07:30:44.058Z,18.28
2018-05-04T07:31:40.274Z,18.25
2018-05-04T07:32:40.502Z,18.25
2018-05-04T07:33:40.719Z,17.99
2018-05-04T07:34:40.946Z,17.85
2018-05-04T07:35:41.167Z,17.82
2018-05-04T07:36:41.413Z,17.79
2018-05-04T07:37:41.525Z,17.43
2018-05-04T07:38:57.561Z,17.89
2018-05-04T07:39:41.873Z,18.34
2018-05-04T07:40:45.067Z,18.00
2018-05-04T07:41:46.042Z,17.44
2018-05-04T07:42:42.521Z,17.85
2018-05-04T07:43:42.660Z,18.37
2018-05-04T07:44:42.776Z,19.14
2018-05-04T07:45:43.017Z,19.33
2018-05-04T07:46:43.140Z,19.58
2018-05-04T07:47:43.340Z,19.90
2018-05-04T07:48:45.103Z,19.05
2018-05-04T07:49:45.553Z,19.05
2018-05-04T07:50:46.552Z,18.76
2018-05-04T07:51:46.053Z,18.80
2018-05-04T07:52:46.053Z,18.72
2018-05-04T07:53:48.059Z,19.24
2018-05-04T07:54:44.564Z,18.64
2018-05-04T07:55:46.549Z,19.01
2018-05-04T07:56:44.913Z,19.10
2018-05-04T07:57:45.198Z,19.17
2018-05-04T07:58:50.092Z,19.33
2018-05-04T07:59:46.423Z,19.29
2018-05-04T08:00:45.639Z,20.08
2018-05-04T08:01:47.545Z,20.33
2018-05-04T08:02:47.622Z,19.87
2018-05-04T08:03:48.082Z,19.02
2018-05-04T08:04:46.333Z,19.33
2018-05-04T08:05:48.046Z,19.25
2018-05-04T08:07:23.549Z,18.74
2018-05-04T08:07:48.581Z,18.95
2018-05-04T08:08:47.184Z,18.61
2018-05-04T08:09:51.060Z,18.31
2018-05-04T08:10:53.528Z,18.47
2018-05-04T08:11:47.744Z,18.65
2018-05-04T08:12:49.546Z,18.46
2018-05-04T08:13:50.046Z,19.15
2018-05-04T08:14:52.055Z,19.31
2018-05-04T08:15:50.825Z,19.61
2018-05-04T08:16:48.700Z,19.63
2018-05-04T08:17:52.558Z,19.13
2018-05-04T08:18:49.019Z,19.51
2018-05-04T08:19:49.267Z,19.61
2018-05-04T08:20:53.055Z,20.08
2018-05-04T08:21:50.557Z,20.08
2018-05-04T08:22:53.595Z,20.74
2018-05-04T08:23:49.958Z,20.95
2018-05-04T08:24:52.086Z,20.98
2018-05-04T08:25:50.356Z,20.31
2018-05-04T08:26:52.092Z,19.88
2018-05-04T08:27:52.606Z,20.08
2018-05-04T08:28:50.775Z,20.13
2018-05-04T08:29:51.112Z,19.61
2018-05-04T08:32:27.331Z,18.47
2018-05-04T08:33:24.831Z,18.91
2018-05-04T08:34:26.377Z,19.13
2018-05-04T08:35:23.711Z,18.84
2018-05-04T08:36:26.387Z,18.59
2018-05-04T08:37:31.831Z,19.42
2018-05-04T08:38:45.184Z,19.23
2018-05-04T08:39:28.331Z,19.66
2018-05-04T08:40:32.372Z,19.39
2018-05-04T08:41:24.822Z,19.66
2018-05-04T08:42:26.849Z,19.06
2018-05-04T08:43:26.783Z,19.46
2018-05-04T08:44:28.833Z,19.61
2018-05-04T08:45:29.329Z,18.73
2018-05-04T08:46:25.547Z,18.94
2018-05-04T08:47:27.299Z,18.62
2018-05-04T08:48:29.831Z,18.52
2018-05-04T08:49:26.085Z,18.79
2018-05-04T08:50:26.196Z,19.02
2018-05-04T08:51:28.332Z,19.06
2018-05-04T08:52:28.381Z,19.88
2018-05-04T08:53:28.104Z,19.65
2018-05-04T08:54:30.835Z,19.83
2018-05-04T08:55:27.201Z,20.21
2018-05-04T08:56:27.425Z,20.49
2018-05-04T08:57:27.668Z,20.86
2018-05-04T08:58:27.869Z,20.86
2018-05-04T08:59:28.081Z,20.09
2018-05-04T09:00:28.350Z,20.18
2018-05-04T09:01:31.294Z,19.79
2018-05-04T09:02:35.244Z,19.61
2018-05-04T09:03:30.344Z,19.91
2018-05-04T09:04:29.057Z,19.39
2018-05-04T09:05:44.946Z,19.40
2018-05-04T09:06:29.442Z,20.10
2018-05-04T09:07:29.575Z,19.91
2018-05-04T09:08:31.381Z,20.41
2018-05-04T09:09:31.844Z,20.05
2018-05-04T09:10:33.881Z,19.79
2018-05-04T09:11:31.807Z,19.39
2018-05-04T09:12:31.465Z,19.25
2018-05-04T09:13:32.314Z,19.47
2018-05-04T09:14:32.339Z,19.53
2018-05-04T09:15:32.839Z,19.48
2018-05-04T09:16:32.838Z,19.94
2018-05-04T09:17:35.807Z,19.84
2018-05-04T09:18:33.296Z,20.53
2018-05-04T09:19:31.559Z,20.62
2018-05-04T09:20:34.385Z,19.68
2018-05-04T09:21:33.894Z,19.68
2018-05-04T09:22:32.002Z,20.00
2018-05-04T09:23:33.356Z,19.90
2018-05-04T09:24:32.497Z,19.58
2018-05-04T09:25:32.608Z,19.14
2018-05-04T09:26:40.339Z,19.15
2018-05-04T09:27:35.797Z,19.80
2018-05-04T09:28:33.289Z,19.98
2018-05-04T09:29:35.372Z,19.69
2018-05-04T09:30:33.738Z,20.06
2018-05-04T09:31:35.840Z,20.08
2018-05-04T09:32:38.085Z,20.91
2018-05-04T09:33:35.839Z,20.77
2018-05-04T09:34:36.337Z,19.72
2018-05-04T09:35:34.692Z,19.29
2018-05-04T09:36:34.919Z,19.91
2018-05-04T09:37:36.887Z,20.43
2018-05-04T09:38:57.836Z,20.09
2018-05-04T09:39:37.345Z,20.18
2018-05-04T09:40:36.740Z,20.66
2018-05-04T09:41:37.984Z,20.76
2018-05-04T09:42:37.298Z,20.06
2018-05-04T09:43:51.904Z,20.02
2018-05-04T09:44:40.342Z,19.47
2018-05-04T09:45:36.548Z,19.51
2018-05-04T09:46:42.362Z,20.38
2018-05-04T09:47:59.347Z,19.65
2018-05-04T09:48:40.837Z,19.38
2018-05-04T09:49:37.261Z,19.73
2018-05-04T09:50:39.345Z,20.18
2018-05-04T09:51:37.557Z,20.00
2018-05-04T09:52:39.339Z,19.72
2018-05-04T09:53:39.879Z,19.46
2018-05-04T09:54:39.858Z,19.57
2018-05-04T09:56:01.938Z,19.50
2018-05-04T09:56:42.361Z,18.99
2018-05-04T09:57:39.718Z,18.84
2018-05-04T09:58:40.344Z,19.35
2018-05-04T09:59:42.844Z,19.24
2018-05-04T10:00:40.838Z,19.46
2018-05-04T10:02:02.298Z,19.24
2018-05-04T10:02:39.974Z,19.65
2018-05-04T10:03:39.870Z,20.09
2018-05-04T10:04:41.846Z,20.08
2018-05-04T10:05:41.845Z,19.58
2018-05-04T10:06:41.205Z,19.65
2018-05-04T10:07:44.448Z,20.10
2018-05-04T10:08:42.351Z,20.62
2018-05-04T10:09:44.661Z,19.76
2018-05-04T10:10:42.851Z,19.98
2018-05-04T10:11:42.868Z,19.84
2018-05-04T10:12:42.863Z,20.08
2018-05-04T10:13:41.636Z,19.98
2018-05-04T10:14:42.429Z,19.55
2018-05-04T10:15:45.418Z,19.87
2018-05-04T10:16:42.073Z,19.48
2018-05-04T10:17:49.892Z,19.24
2018-05-04T10:18:42.346Z,19.38
2018-05-04T10:19:44.494Z,19.39
2018-05-04T10:20:46.341Z,19.72
2018-05-04T10:21:49.012Z,19.86
2018-05-04T10:22:46.888Z,19.88
2018-05-04T10:23:43.417Z,19.88
2018-05-04T10:24:48.302Z,19.86
2018-05-04T10:25:45.359Z,20.38
2018-05-04T10:26:47.347Z,20.50
2018-05-04T10:27:44.156Z,20.18
2018-05-04T10:28:49.884Z,20.34
2018-05-04T10:29:47.362Z,20.30
2018-05-04T10:31:00.377Z,20.42
2018-05-04T10:31:56.359Z,20.46
2018-05-04T10:32:48.841Z,20.74
2018-05-04T10:33:45.203Z,20.38
2018-05-04T10:34:47.974Z,19.69
2018-05-04T10:35:45.635Z,20.18
2018-05-04T10:36:45.793Z,20.47
2018-05-04T10:37:46.004Z,20.15
2018-05-04T10:38:46.328Z,20.00
2018-05-04T10:39:46.367Z,20.28
2018-05-04T10:40:48.348Z,20.65
2018-05-04T10:41:50.299Z,20.03
2018-05-04T10:42:48.888Z,19.70
2018-05-04T10:43:54.863Z,20.39
2018-05-04T10:44:48.918Z,20.15
2018-05-04T10:45:47.383Z,20.69
2018-05-04T10:46:48.612Z,20.81
2018-05-04T10:47:48.848Z,20.65
2018-05-04T10:48:49.870Z,20.10
2018-05-04T10:49:48.919Z,20.23
2018-05-04T10:50:49.003Z,20.47
2018-05-04T10:51:50.350Z,19.88
2018-05-04T10:52:48.936Z,19.98
2018-05-04T10:53:48.998Z,20.10
2018-05-04T10:54:56.960Z,20.53
2018-05-04T10:55:50.425Z,20.83
2018-05-04T10:56:49.648Z,20.25
2018-05-04T10:57:51.863Z,20.69
2018-05-04T10:58:50.090Z,20.59
2018-05-04T10:59:50.319Z,21.09
2018-05-04T11:00:52.355Z,21.60
2018-05-04T11:01:51.756Z,21.72
2018-05-04T11:02:54.909Z,21.06
2018-05-04T11:03:53.450Z,20.93
2018-05-04T11:04:52.854Z,20.50
2018-05-04T11:05:54.349Z,20.10
2018-05-04T11:06:53.349Z,19.87
2018-05-04T11:07:52.863Z,19.94
2018-05-04T11:08:52.046Z,20.03
2018-05-04T11:09:52.147Z,19.93
2018-05-04T11:10:54.350Z,20.06
2018-05-04T11:11:52.659Z,20.35
2018-05-04T11:12:54.344Z,20.51
2018-05-04T11:13:52.968Z,20.47
2018-05-04T11:14:56.851Z,20.59
2018-05-04T11:16:08.849Z,20.68
2018-05-04T11:16:55.370Z,20.47
2018-05-04T11:17:55.349Z,21.13
2018-05-04T11:18:55.860Z,20.96
2018-05-04T11:19:57.889Z,20.95
2018-05-04T11:20:57.847Z,20.80
2018-05-04T11:21:56.346Z,20.34
2018-05-04T11:22:56.352Z,20.46
2018-05-04T11:23:55.693Z,20.23
2018-05-04T11:24:56.855Z,20.84
2018-05-04T11:25:55.063Z,20.50
2018-05-04T11:26:56.129Z,20.54
2018-05-04T11:27:57.366Z,20.69
2018-05-04T11:28:57.359Z,20.38
2018-05-04T11:29:55.830Z,20.39
2018-05-04T11:30:56.082Z,20.25
2018-05-04T11:31:56.281Z,20.58
2018-05-04T11:32:56.496Z,20.46
2018-05-04T11:33:57.722Z,20.65
2018-05-04T11:34:56.942Z,20.53
2018-05-04T11:35:59.506Z,20.83
2018-05-04T11:36:58.850Z,21.36
2018-05-04T11:37:59.350Z,20.69
2018-05-04T11:38:57.805Z,20.89
2018-05-04T11:39:57.860Z,20.43
2018-05-04T11:40:57.954Z,20.12
2018-05-04T11:42:00.862Z,19.86
2018-05-04T11:42:59.916Z,20.09
2018-05-04T11:43:58.505Z,20.35
2018-05-04T11:45:00.359Z,20.71
2018-05-04T11:45:58.957Z,20.58
2018-05-04T11:47:01.904Z,19.87
2018-05-04T11:47:59.386Z,19.39
2018-05-04T11:49:01.352Z,19.65
2018-05-04T11:49:59.717Z,19.86
2018-05-04T11:50:59.821Z,19.63
2018-05-04T11:52:00.044Z,19.90
2018-05-04T11:53:00.305Z,20.09
2018-05-04T11:54:00.479Z,19.80
2018-05-04T11:55:00.720Z,19.78
2018-05-04T11:56:01.849Z,19.47
2018-05-04T11:57:04.850Z,19.25
2018-05-04T11:58:01.319Z,19.08
2018-05-04T11:59:01.559Z,18.94
2018-05-04T12:00:01.791Z,18.64
2018-05-04T12:01:03.860Z,18.83
2018-05-04T12:02:05.883Z,18.70
2018-05-04T12:03:02.368Z,18.98
2018-05-04T12:04:06.355Z,19.29
2018-05-04T12:05:04.379Z,19.50
2018-05-04T12:06:02.970Z,20.06
2018-05-04T12:07:04.858Z,19.61
2018-05-04T12:08:03.343Z,19.01
2018-05-04T12:09:03.579Z,19.13
2018-05-04T12:10:05.370Z,18.83
2018-05-04T12:11:05.871Z,19.23
2018-05-04T12:12:05.857Z,19.24
2018-05-04T12:13:04.326Z,18.94
2018-05-04T12:14:06.373Z,19.38
2018-05-04T12:15:04.721Z,19.23
2018-05-04T12:16:19.945Z,19.79
2018-05-04T12:17:06.862Z,19.54
2018-05-04T12:18:05.217Z,19.90
2018-05-04T12:19:09.360Z,20.15
2018-05-04T12:20:08.376Z,20.03
2018-05-04T12:21:07.353Z,19.75
2018-05-04T12:22:08.863Z,19.61
2018-05-04T12:23:06.207Z,19.68
2018-05-04T12:24:06.431Z,20.05
2018-05-04T12:25:09.641Z,20.03
2018-05-04T12:26:06.871Z,19.69
2018-05-04T12:27:08.863Z,19.63
2018-05-04T12:28:07.343Z,19.69
2018-05-04T12:29:09.363Z,19.94
2018-05-04T12:30:08.752Z,19.91
2018-05-04T12:31:09.867Z,19.87
2018-05-04T12:32:08.107Z,19.88
2018-05-04T12:33:11.858Z,19.83
2018-05-04T12:34:10.359Z,19.57
2018-05-04T12:35:08.576Z,19.53
2018-05-04T12:36:10.366Z,19.46
2018-05-04T12:37:09.056Z,19.39
2018-05-04T12:38:09.180Z,19.50
2018-05-04T12:39:11.359Z,19.50
2018-05-04T12:40:09.572Z,19.29
2018-05-04T12:41:09.809Z,19.40
2018-05-04T12:42:09.944Z,19.57
2018-05-04T12:43:15.856Z,19.51
2018-05-04T12:44:10.394Z,19.46
2018-05-04T12:45:10.598Z,19.02
2018-05-04T12:46:10.790Z,19.25
2018-05-04T12:47:11.021Z,18.98
2018-05-04T12:48:12.875Z,19.18
2018-05-04T12:49:11.474Z,19.43
2018-05-04T12:50:11.694Z,19.10
2018-05-04T12:51:11.920Z,19.14
2018-05-04T12:52:12.137Z,19.06
2018-05-04T12:53:12.393Z,18.92
2018-05-04T12:54:12.584Z,19.20
2018-05-04T12:55:12.795Z,19.05
2018-05-04T12:56:13.024Z,18.94
2018-05-04T12:57:13.240Z,18.94
2018-05-04T12:58:13.461Z,18.97
2018-05-04T12:59:15.378Z,18.95
2018-05-04T13:00:13.844Z,18.55
2018-05-04T13:01:14.066Z,18.68
2018-05-04T13:02:14.308Z,18.90
2018-05-04T13:03:14.402Z,18.87
2018-05-04T13:04:14.630Z,19.11
2018-05-04T13:05:15.861Z,18.84
2018-05-04T13:06:16.861Z,19.14
2018-05-04T13:07:15.338Z,18.82